sensor_id;sensor_type;location;lat;lon;timestamp;P1;durP1;ratioP1;P2;durP2;ratioP2
4873;SDS011;2451;49.970;9.068;2023-08-08T00:00:34;6.45;;;3.78;;
4873;SDS011;2451;49.970;9.068;2023-08-08T00:03:00;5.88;;;3.33;;
4873;SDS011;2451;49.970;9.068;2023-08-08T00:05:26;7.82;;;3.90;;
4873;SDS011;2451;49.970;9.068;2023-08-08T00:07:51;6.38;;;3.90;;
4873;SDS011;2451;49.970;9.068;2023-08-08T00:10:17;6.95;;;3.80;;
4873;SDS011;2451;49.970;9.068;2023-08-08T00:12:42;6.25;;;3.78;;
4873;SDS011;2451;49.970;9.068;2023-08-08T00:15:08;8.98;;;4.00;;
4873;SDS011;2451;49.970;9.068;2023-08-08T00:17:34;6.82;;;3.70;;
4873;SDS011;2451;49.970;9.068;2023-08-08T00:20:00;6.38;;;3.60;;
4873;SDS011;2451;49.970;9.068;2023-08-08T00:22:25;6.45;;;3.85;;
4873;SDS011;2451;49.970;9.068;2023-08-08T00:24:51;9.75;;;3.63;;
4873;SDS011;2451;49.970;9.068;2023-08-08T00:27:16;7.18;;;3.50;;
4873;SDS011;2451;49.970;9.068;2023-08-08T00:29:42;5.78;;;3.53;;
4873;SDS011;2451;49.970;9.068;2023-08-08T00:32:07;6.60;;;3.40;;
4873;SDS011;2451;49.970;9.068;2023-08-08T00:34:33;7.05;;;3.83;;
4873;SDS011;2451;49.970;9.068;2023-08-08T00:36:58;6.22;;;3.58;;
4873;SDS011;2451;49.970;9.068;2023-08-08T00:39:24;8.95;;;3.45;;
4873;SDS011;2451;49.970;9.068;2023-08-08T00:41:49;6.20;;;3.83;;
4873;SDS011;2451;49.970;9.068;2023-08-08T00:44:15;6.05;;;3.35;;
4873;SDS011;2451;49.970;9.068;2023-08-08T00:46:40;6.30;;;3.40;;
4873;SDS011;2451;49.970;9.068;2023-08-08T00:49:06;8.75;;;3.60;;
4873;SDS011;2451;49.970;9.068;2023-08-08T00:51:32;7.57;;;3.53;;
4873;SDS011;2451;49.970;9.068;2023-08-08T00:53:57;8.20;;;3.42;;
4873;SDS011;2451;49.970;9.068;2023-08-08T00:56:24;9.63;;;3.47;;
4873;SDS011;2451;49.970;9.068;2023-08-08T00:58:50;5.85;;;3.58;;
4873;SDS011;2451;49.970;9.068;2023-08-08T01:01:16;6.40;;;3.60;;
4873;SDS011;2451;49.970;9.068;2023-08-08T01:03:43;7.13;;;3.50;;
4873;SDS011;2451;49.970;9.068;2023-08-08T01:06:11;5.03;;;3.50;;
4873;SDS011;2451;49.970;9.068;2023-08-08T01:08:45;5.60;;;3.60;;
4873;SDS011;2451;49.970;9.068;2023-08-08T01:11:47;6.85;;;3.25;;
4873;SDS011;2451;49.970;9.068;2023-08-08T01:14:14;6.95;;;3.47;;
4873;SDS011;2451;49.970;9.068;2023-08-08T01:16:43;6.30;;;3.80;;
4873;SDS011;2451;49.970;9.068;2023-08-08T01:19:10;6.47;;;3.33;;
4873;SDS011;2451;49.970;9.068;2023-08-08T01:21:39;6.70;;;3.47;;
4873;SDS011;2451;49.970;9.068;2023-08-08T01:24:24;7.50;;;3.35;;
4873;SDS011;2451;49.970;9.068;2023-08-08T01:26:52;6.93;;;3.35;;
4873;SDS011;2451;49.970;9.068;2023-08-08T01:29:18;8.55;;;3.38;;
4873;SDS011;2451;49.970;9.068;2023-08-08T01:31:44;5.97;;;3.33;;
4873;SDS011;2451;49.970;9.068;2023-08-08T01:34:09;5.90;;;3.75;;
4873;SDS011;2451;49.970;9.068;2023-08-08T01:36:42;5.80;;;3.47;;
4873;SDS011;2451;49.970;9.068;2023-08-08T01:39:20;11.93;;;3.53;;
4873;SDS011;2451;49.970;9.068;2023-08-08T01:41:58;6.72;;;3.13;;
4873;SDS011;2451;49.970;9.068;2023-08-08T01:44:25;7.65;;;3.70;;
4873;SDS011;2451;49.970;9.068;2023-08-08T01:46:53;9.20;;;3.70;;
4873;SDS011;2451;49.970;9.068;2023-08-08T01:49:19;4.93;;;3.33;;
4873;SDS011;2451;49.970;9.068;2023-08-08T01:51:44;6.63;;;3.67;;
4873;SDS011;2451;49.970;9.068;2023-08-08T01:54:10;6.78;;;3.42;;
4873;SDS011;2451;49.970;9.068;2023-08-08T01:56:35;5.20;;;3.30;;
4873;SDS011;2451;49.970;9.068;2023-08-08T01:59:01;7.93;;;3.65;;
4873;SDS011;2451;49.970;9.068;2023-08-08T02:01:26;5.22;;;3.17;;
4873;SDS011;2451;49.970;9.068;2023-08-08T02:03:52;5.43;;;3.42;;
4873;SDS011;2451;49.970;9.068;2023-08-08T02:06:18;5.55;;;3.20;;
4873;SDS011;2451;49.970;9.068;2023-08-08T02:08:43;6.28;;;3.35;;
4873;SDS011;2451;49.970;9.068;2023-08-08T02:11:10;6.88;;;3.50;;
4873;SDS011;2451;49.970;9.068;2023-08-08T02:13:35;10.32;;;3.10;;
4873;SDS011;2451;49.970;9.068;2023-08-08T02:16:01;5.93;;;3.20;;
4873;SDS011;2451;49.970;9.068;2023-08-08T02:18:26;5.80;;;3.22;;
4873;SDS011;2451;49.970;9.068;2023-08-08T02:20:52;6.93;;;3.30;;
4873;SDS011;2451;49.970;9.068;2023-08-08T02:23:17;6.75;;;2.95;;
4873;SDS011;2451;49.970;9.068;2023-08-08T02:25:43;8.52;;;3.63;;
4873;SDS011;2451;49.970;9.068;2023-08-08T02:28:09;5.63;;;3.17;;
4873;SDS011;2451;49.970;9.068;2023-08-08T02:30:34;4.90;;;2.80;;
4873;SDS011;2451;49.970;9.068;2023-08-08T02:33:00;5.40;;;3.00;;
4873;SDS011;2451;49.970;9.068;2023-08-08T02:35:25;7.35;;;3.20;;
4873;SDS011;2451;49.970;9.068;2023-08-08T02:37:51;5.22;;;3.20;;
4873;SDS011;2451;49.970;9.068;2023-08-08T02:40:16;6.72;;;2.90;;
4873;SDS011;2451;49.970;9.068;2023-08-08T02:42:42;7.63;;;3.22;;
4873;SDS011;2451;49.970;9.068;2023-08-08T02:45:08;5.45;;;3.03;;
4873;SDS011;2451;49.970;9.068;2023-08-08T02:47:34;6.82;;;3.30;;
4873;SDS011;2451;49.970;9.068;2023-08-08T02:49:59;4.95;;;3.10;;
4873;SDS011;2451;49.970;9.068;2023-08-08T02:52:25;6.65;;;3.28;;
4873;SDS011;2451;49.970;9.068;2023-08-08T02:54:50;7.50;;;3.20;;
4873;SDS011;2451;49.970;9.068;2023-08-08T02:57:16;5.32;;;3.03;;
4873;SDS011;2451;49.970;9.068;2023-08-08T02:59:41;8.02;;;3.42;;
4873;SDS011;2451;49.970;9.068;2023-08-08T03:02:07;5.70;;;2.90;;
4873;SDS011;2451;49.970;9.068;2023-08-08T03:04:32;5.20;;;3.38;;
4873;SDS011;2451;49.970;9.068;2023-08-08T03:06:58;5.30;;;2.75;;
4873;SDS011;2451;49.970;9.068;2023-08-08T03:09:23;8.07;;;3.67;;
4873;SDS011;2451;49.970;9.068;2023-08-08T03:11:49;5.05;;;3.10;;
4873;SDS011;2451;49.970;9.068;2023-08-08T03:14:15;5.50;;;3.40;;
4873;SDS011;2451;49.970;9.068;2023-08-08T03:16:40;5.50;;;3.00;;
4873;SDS011;2451;49.970;9.068;2023-08-08T03:19:06;5.30;;;3.25;;
4873;SDS011;2451;49.970;9.068;2023-08-08T03:21:31;6.65;;;3.58;;
4873;SDS011;2451;49.970;9.068;2023-08-08T03:23:57;5.95;;;3.03;;
4873;SDS011;2451;49.970;9.068;2023-08-08T03:26:23;7.97;;;3.33;;
4873;SDS011;2451;49.970;9.068;2023-08-08T03:28:49;7.68;;;3.38;;
4873;SDS011;2451;49.970;9.068;2023-08-08T03:31:16;5.35;;;3.35;;
4873;SDS011;2451;49.970;9.068;2023-08-08T03:33:42;6.00;;;3.08;;
4873;SDS011;2451;49.970;9.068;2023-08-08T03:36:08;7.60;;;3.20;;
4873;SDS011;2451;49.970;9.068;2023-08-08T03:38:33;6.57;;;3.03;;
4873;SDS011;2451;49.970;9.068;2023-08-08T03:41:00;5.60;;;3.28;;
4873;SDS011;2451;49.970;9.068;2023-08-08T03:43:26;6.38;;;2.88;;
4873;SDS011;2451;49.970;9.068;2023-08-08T03:45:51;6.00;;;3.45;;
4873;SDS011;2451;49.970;9.068;2023-08-08T03:48:17;4.05;;;2.70;;
4873;SDS011;2451;49.970;9.068;2023-08-08T03:50:42;4.10;;;2.92;;
4873;SDS011;2451;49.970;9.068;2023-08-08T03:53:08;6.38;;;3.13;;
4873;SDS011;2451;49.970;9.068;2023-08-08T03:55:33;7.47;;;2.80;;
4873;SDS011;2451;49.970;9.068;2023-08-08T03:57:59;5.78;;;2.90;;
4873;SDS011;2451;49.970;9.068;2023-08-08T04:00:24;7.10;;;3.25;;
4873;SDS011;2451;49.970;9.068;2023-08-08T04:02:50;6.22;;;2.95;;
4873;SDS011;2451;49.970;9.068;2023-08-08T04:05:15;4.68;;;2.97;;
4873;SDS011;2451;49.970;9.068;2023-08-08T04:07:41;6.95;;;2.85;;
4873;SDS011;2451;49.970;9.068;2023-08-08T04:10:07;3.72;;;2.90;;
4873;SDS011;2451;49.970;9.068;2023-08-08T04:12:32;4.95;;;2.95;;
4873;SDS011;2451;49.970;9.068;2023-08-08T04:14:58;8.30;;;3.47;;
4873;SDS011;2451;49.970;9.068;2023-08-08T04:17:23;5.60;;;3.00;;
4873;SDS011;2451;49.970;9.068;2023-08-08T04:19:49;4.25;;;3.22;;
4873;SDS011;2451;49.970;9.068;2023-08-08T04:22:15;6.22;;;3.33;;
4873;SDS011;2451;49.970;9.068;2023-08-08T04:24:41;8.85;;;3.20;;
4873;SDS011;2451;49.970;9.068;2023-08-08T04:27:06;8.30;;;3.40;;
4873;SDS011;2451;49.970;9.068;2023-08-08T04:29:32;5.82;;;3.20;;
4873;SDS011;2451;49.970;9.068;2023-08-08T04:31:57;6.13;;;3.47;;
4873;SDS011;2451;49.970;9.068;2023-08-08T04:34:23;6.15;;;3.10;;
4873;SDS011;2451;49.970;9.068;2023-08-08T04:36:48;5.47;;;3.30;;
4873;SDS011;2451;49.970;9.068;2023-08-08T04:39:14;6.60;;;3.05;;
4873;SDS011;2451;49.970;9.068;2023-08-08T04:41:39;5.65;;;3.20;;
4873;SDS011;2451;49.970;9.068;2023-08-08T04:44:05;6.82;;;3.00;;
4873;SDS011;2451;49.970;9.068;2023-08-08T04:46:30;7.13;;;3.42;;
4873;SDS011;2451;49.970;9.068;2023-08-08T04:48:56;6.43;;;3.40;;
4873;SDS011;2451;49.970;9.068;2023-08-08T04:51:21;6.03;;;3.20;;
4873;SDS011;2451;49.970;9.068;2023-08-08T04:53:47;5.22;;;3.40;;
4873;SDS011;2451;49.970;9.068;2023-08-08T04:56:12;4.68;;;3.33;;
4873;SDS011;2451;49.970;9.068;2023-08-08T04:58:38;6.32;;;3.30;;
4873;SDS011;2451;49.970;9.068;2023-08-08T05:01:04;4.55;;;3.05;;
4873;SDS011;2451;49.970;9.068;2023-08-08T05:03:29;5.78;;;3.42;;
4873;SDS011;2451;49.970;9.068;2023-08-08T05:05:55;7.32;;;3.63;;
4873;SDS011;2451;49.970;9.068;2023-08-08T05:08:20;8.10;;;3.47;;
4873;SDS011;2451;49.970;9.068;2023-08-08T05:10:46;11.32;;;3.60;;
4873;SDS011;2451;49.970;9.068;2023-08-08T05:13:12;9.13;;;3.65;;
4873;SDS011;2451;49.970;9.068;2023-08-08T05:15:38;7.10;;;3.70;;
4873;SDS011;2451;49.970;9.068;2023-08-08T05:18:04;7.75;;;3.53;;
4873;SDS011;2451;49.970;9.068;2023-08-08T05:20:29;8.23;;;3.50;;
4873;SDS011;2451;49.970;9.068;2023-08-08T05:22:55;7.13;;;3.75;;
4873;SDS011;2451;49.970;9.068;2023-08-08T05:25:20;6.80;;;3.40;;
4873;SDS011;2451;49.970;9.068;2023-08-08T05:27:46;5.35;;;2.95;;
4873;SDS011;2451;49.970;9.068;2023-08-08T05:30:11;9.07;;;3.28;;
4873;SDS011;2451;49.970;9.068;2023-08-08T05:32:37;7.47;;;3.25;;
4873;SDS011;2451;49.970;9.068;2023-08-08T05:35:03;6.65;;;3.10;;
4873;SDS011;2451;49.970;9.068;2023-08-08T05:37:29;6.05;;;3.25;;
4873;SDS011;2451;49.970;9.068;2023-08-08T05:39:55;6.72;;;2.67;;
4873;SDS011;2451;49.970;9.068;2023-08-08T05:42:20;7.78;;;2.88;;
4873;SDS011;2451;49.970;9.068;2023-08-08T05:44:46;4.93;;;2.70;;
4873;SDS011;2451;49.970;9.068;2023-08-08T05:47:11;6.00;;;2.83;;
4873;SDS011;2451;49.970;9.068;2023-08-08T05:49:38;6.70;;;2.63;;
4873;SDS011;2451;49.970;9.068;2023-08-08T05:52:06;4.80;;;2.70;;
4873;SDS011;2451;49.970;9.068;2023-08-08T05:54:32;5.93;;;2.50;;
4873;SDS011;2451;49.970;9.068;2023-08-08T05:56:57;8.40;;;2.40;;
4873;SDS011;2451;49.970;9.068;2023-08-08T05:59:23;6.25;;;2.60;;
4873;SDS011;2451;49.970;9.068;2023-08-08T06:01:48;4.65;;;2.17;;
4873;SDS011;2451;49.970;9.068;2023-08-08T06:04:14;5.68;;;2.75;;
4873;SDS011;2451;49.970;9.068;2023-08-08T06:06:39;6.40;;;2.13;;
4873;SDS011;2451;49.970;9.068;2023-08-08T06:09:05;6.93;;;2.22;;
4873;SDS011;2451;49.970;9.068;2023-08-08T06:11:30;4.95;;;2.20;;
4873;SDS011;2451;49.970;9.068;2023-08-08T06:13:56;3.65;;;2.08;;
4873;SDS011;2451;49.970;9.068;2023-08-08T06:16:22;5.97;;;1.92;;
4873;SDS011;2451;49.970;9.068;2023-08-08T06:18:47;4.15;;;1.85;;
4873;SDS011;2451;49.970;9.068;2023-08-08T06:21:13;4.57;;;2.00;;
4873;SDS011;2451;49.970;9.068;2023-08-08T06:23:39;4.15;;;2.17;;
4873;SDS011;2451;49.970;9.068;2023-08-08T06:26:04;5.13;;;1.90;;
4873;SDS011;2451;49.970;9.068;2023-08-08T06:28:30;6.38;;;1.83;;
4873;SDS011;2451;49.970;9.068;2023-08-08T06:30:57;2.47;;;1.90;;
4873;SDS011;2451;49.970;9.068;2023-08-08T06:33:23;3.22;;;1.88;;
4873;SDS011;2451;49.970;9.068;2023-08-08T06:35:48;4.25;;;1.88;;
4873;SDS011;2451;49.970;9.068;2023-08-08T06:38:14;4.72;;;1.90;;
4873;SDS011;2451;49.970;9.068;2023-08-08T06:40:40;3.05;;;1.70;;
4873;SDS011;2451;49.970;9.068;2023-08-08T06:43:05;3.42;;;1.83;;
4873;SDS011;2451;49.970;9.068;2023-08-08T06:45:31;3.63;;;1.85;;
4873;SDS011;2451;49.970;9.068;2023-08-08T06:47:56;4.28;;;1.88;;
4873;SDS011;2451;49.970;9.068;2023-08-08T06:50:22;5.70;;;1.77;;
4873;SDS011;2451;49.970;9.068;2023-08-08T06:52:49;6.70;;;2.28;;
4873;SDS011;2451;49.970;9.068;2023-08-08T06:55:15;4.00;;;1.85;;
4873;SDS011;2451;49.970;9.068;2023-08-08T06:57:40;3.38;;;1.92;;
4873;SDS011;2451;49.970;9.068;2023-08-08T07:00:06;3.83;;;1.83;;
4873;SDS011;2451;49.970;9.068;2023-08-08T07:02:33;4.68;;;1.90;;
4873;SDS011;2451;49.970;9.068;2023-08-08T07:04:59;4.03;;;2.05;;
4873;SDS011;2451;49.970;9.068;2023-08-08T07:07:24;3.88;;;1.75;;
4873;SDS011;2451;49.970;9.068;2023-08-08T07:09:50;3.83;;;1.60;;
4873;SDS011;2451;49.970;9.068;2023-08-08T07:12:15;6.05;;;1.80;;
4873;SDS011;2451;49.970;9.068;2023-08-08T07:14:41;5.78;;;2.00;;
4873;SDS011;2451;49.970;9.068;2023-08-08T07:17:07;5.40;;;1.95;;
4873;SDS011;2451;49.970;9.068;2023-08-08T07:19:32;4.40;;;1.80;;
4873;SDS011;2451;49.970;9.068;2023-08-08T07:21:58;3.10;;;1.80;;
4873;SDS011;2451;49.970;9.068;2023-08-08T07:24:24;4.43;;;1.83;;
4873;SDS011;2451;49.970;9.068;2023-08-08T07:29:20;4.88;;;1.83;;
4873;SDS011;2451;49.970;9.068;2023-08-08T07:31:46;2.72;;;1.50;;
4873;SDS011;2451;49.970;9.068;2023-08-08T07:34:11;2.95;;;1.40;;
4873;SDS011;2451;49.970;9.068;2023-08-08T07:36:37;2.83;;;1.30;;
4873;SDS011;2451;49.970;9.068;2023-08-08T07:39:02;4.22;;;1.65;;
4873;SDS011;2451;49.970;9.068;2023-08-08T07:41:28;4.03;;;1.60;;
4873;SDS011;2451;49.970;9.068;2023-08-08T07:43:55;4.95;;;1.63;;
4873;SDS011;2451;49.970;9.068;2023-08-08T07:46:20;5.55;;;1.40;;
4873;SDS011;2451;49.970;9.068;2023-08-08T07:48:46;3.42;;;1.50;;
4873;SDS011;2451;49.970;9.068;2023-08-08T07:51:11;3.88;;;1.55;;
4873;SDS011;2451;49.970;9.068;2023-08-08T07:53:37;2.60;;;1.23;;
4873;SDS011;2451;49.970;9.068;2023-08-08T07:56:02;2.60;;;1.35;;
4873;SDS011;2451;49.970;9.068;2023-08-08T07:58:28;2.63;;;1.20;;
4873;SDS011;2451;49.970;9.068;2023-08-08T08:00:54;2.50;;;1.33;;
4873;SDS011;2451;49.970;9.068;2023-08-08T08:03:20;3.00;;;1.67;;
4873;SDS011;2451;49.970;9.068;2023-08-08T08:05:45;5.20;;;1.67;;
4873;SDS011;2451;49.970;9.068;2023-08-08T08:08:11;4.90;;;1.35;;
4873;SDS011;2451;49.970;9.068;2023-08-08T08:10:37;4.85;;;1.60;;
4873;SDS011;2451;49.970;9.068;2023-08-08T08:13:02;2.78;;;1.40;;
4873;SDS011;2451;49.970;9.068;2023-08-08T08:15:28;1.73;;;1.15;;
4873;SDS011;2451;49.970;9.068;2023-08-08T08:17:54;2.85;;;1.30;;
4873;SDS011;2451;49.970;9.068;2023-08-08T08:20:19;4.22;;;1.45;;
4873;SDS011;2451;49.970;9.068;2023-08-08T08:22:45;2.67;;;1.33;;
4873;SDS011;2451;49.970;9.068;2023-08-08T08:25:11;4.13;;;1.30;;
4873;SDS011;2451;49.970;9.068;2023-08-08T08:27:38;2.30;;;1.10;;
4873;SDS011;2451;49.970;9.068;2023-08-08T08:30:07;4.40;;;1.73;;
4873;SDS011;2451;49.970;9.068;2023-08-08T08:32:35;2.95;;;1.50;;
4873;SDS011;2451;49.970;9.068;2023-08-08T08:35:01;4.22;;;1.55;;
4873;SDS011;2451;49.970;9.068;2023-08-08T08:37:29;2.47;;;1.40;;
4873;SDS011;2451;49.970;9.068;2023-08-08T08:39:55;2.45;;;1.33;;
4873;SDS011;2451;49.970;9.068;2023-08-08T08:42:20;2.88;;;1.38;;
4873;SDS011;2451;49.970;9.068;2023-08-08T08:44:47;3.13;;;1.20;;
4873;SDS011;2451;49.970;9.068;2023-08-08T08:47:14;2.47;;;1.20;;
4873;SDS011;2451;49.970;9.068;2023-08-08T08:49:42;2.88;;;1.33;;
4873;SDS011;2451;49.970;9.068;2023-08-08T08:52:10;2.60;;;1.45;;
4873;SDS011;2451;49.970;9.068;2023-08-08T08:54:36;3.22;;;1.52;;
4873;SDS011;2451;49.970;9.068;2023-08-08T08:57:03;2.00;;;1.20;;
4873;SDS011;2451;49.970;9.068;2023-08-08T08:59:29;2.42;;;1.30;;
4873;SDS011;2451;49.970;9.068;2023-08-08T09:01:55;2.78;;;1.35;;
4873;SDS011;2451;49.970;9.068;2023-08-08T09:04:22;3.83;;;1.60;;
4873;SDS011;2451;49.970;9.068;2023-08-08T09:06:49;3.03;;;1.50;;
4873;SDS011;2451;49.970;9.068;2023-08-08T09:09:16;3.70;;;1.30;;
4873;SDS011;2451;49.970;9.068;2023-08-08T09:11:42;3.70;;;1.30;;
4873;SDS011;2451;49.970;9.068;2023-08-08T09:14:19;3.70;;;1.30;;
4873;SDS011;2451;49.970;9.068;2023-08-08T09:16:46;3.42;;;1.20;;
4873;SDS011;2451;49.970;9.068;2023-08-08T09:19:13;3.22;;;1.50;;
4873;SDS011;2451;49.970;9.068;2023-08-08T09:21:39;2.22;;;1.02;;
4873;SDS011;2451;49.970;9.068;2023-08-08T09:24:05;5.30;;;1.40;;
4873;SDS011;2451;49.970;9.068;2023-08-08T09:26:32;2.53;;;1.50;;
4873;SDS011;2451;49.970;9.068;2023-08-08T09:28:59;3.80;;;1.40;;
4873;SDS011;2451;49.970;9.068;2023-08-08T09:31:25;3.55;;;1.25;;
4873;SDS011;2451;49.970;9.068;2023-08-08T09:33:53;4.38;;;1.30;;
4873;SDS011;2451;49.970;9.068;2023-08-08T09:36:19;3.73;;;1.40;;
4873;SDS011;2451;49.970;9.068;2023-08-08T09:38:45;4.88;;;1.20;;
4873;SDS011;2451;49.970;9.068;2023-08-08T09:41:11;4.68;;;1.30;;
4873;SDS011;2451;49.970;9.068;2023-08-08T09:43:37;5.13;;;1.60;;
4873;SDS011;2451;49.970;9.068;2023-08-08T09:46:03;2.50;;;1.10;;
4873;SDS011;2451;49.970;9.068;2023-08-08T09:48:32;2.08;;;1.25;;
4873;SDS011;2451;49.970;9.068;2023-08-08T09:53:24;3.25;;;1.27;;
4873;SDS011;2451;49.970;9.068;2023-08-08T09:55:52;4.18;;;1.33;;
4873;SDS011;2451;49.970;9.068;2023-08-08T09:58:20;2.60;;;1.20;;
4873;SDS011;2451;49.970;9.068;2023-08-08T10:00:47;3.75;;;1.40;;
4873;SDS011;2451;49.970;9.068;2023-08-08T10:03:15;2.58;;;1.30;;
4873;SDS011;2451;49.970;9.068;2023-08-08T10:05:42;6.93;;;1.50;;
4873;SDS011;2451;49.970;9.068;2023-08-08T10:08:08;2.70;;;1.17;;
4873;SDS011;2451;49.970;9.068;2023-08-08T10:10:34;3.28;;;1.40;;
4873;SDS011;2451;49.970;9.068;2023-08-08T10:13:00;3.08;;;1.33;;
4873;SDS011;2451;49.970;9.068;2023-08-08T10:15:26;2.90;;;1.20;;
4873;SDS011;2451;49.970;9.068;2023-08-08T10:17:55;3.28;;;1.30;;
4873;SDS011;2451;49.970;9.068;2023-08-08T10:20:23;5.68;;;1.63;;
4873;SDS011;2451;49.970;9.068;2023-08-08T10:22:51;3.75;;;1.20;;
4873;SDS011;2451;49.970;9.068;2023-08-08T10:27:49;4.13;;;1.48;;
4873;SDS011;2451;49.970;9.068;2023-08-08T10:30:26;2.95;;;1.20;;
4873;SDS011;2451;49.970;9.068;2023-08-08T10:32:56;3.83;;;1.35;;
4873;SDS011;2451;49.970;9.068;2023-08-08T10:35:24;2.83;;;1.00;;
4873;SDS011;2451;49.970;9.068;2023-08-08T10:38:01;4.45;;;1.42;;
4873;SDS011;2451;49.970;9.068;2023-08-08T10:40:34;3.47;;;1.20;;
4873;SDS011;2451;49.970;9.068;2023-08-08T10:43:09;5.30;;;1.55;;
4873;SDS011;2451;49.970;9.068;2023-08-08T10:45:37;3.80;;;1.50;;
4873;SDS011;2451;49.970;9.068;2023-08-08T10:48:08;3.05;;;1.40;;
4873;SDS011;2451;49.970;9.068;2023-08-08T10:50:37;10.93;;;1.52;;
4873;SDS011;2451;49.970;9.068;2023-08-08T10:53:04;3.28;;;1.30;;
4873;SDS011;2451;49.970;9.068;2023-08-08T10:55:35;1.88;;;1.13;;
4873;SDS011;2451;49.970;9.068;2023-08-08T10:58:08;7.80;;;1.85;;
4873;SDS011;2451;49.970;9.068;2023-08-08T11:00:36;3.00;;;1.08;;
4873;SDS011;2451;49.970;9.068;2023-08-08T11:03:06;3.75;;;1.50;;
4873;SDS011;2451;49.970;9.068;2023-08-08T11:05:34;2.63;;;1.20;;
4873;SDS011;2451;49.970;9.068;2023-08-08T11:08:01;4.22;;;1.27;;
4873;SDS011;2451;49.970;9.068;2023-08-08T11:10:28;4.00;;;1.58;;
4873;SDS011;2451;49.970;9.068;2023-08-08T11:13:04;2.72;;;1.30;;
4873;SDS011;2451;49.970;9.068;2023-08-08T11:15:35;3.92;;;1.50;;
4873;SDS011;2451;49.970;9.068;2023-08-08T11:18:01;5.20;;;1.65;;
4873;SDS011;2451;49.970;9.068;2023-08-08T11:20:29;15.07;;;1.98;;
4873;SDS011;2451;49.970;9.068;2023-08-08T11:22:56;3.00;;;1.20;;
4873;SDS011;2451;49.970;9.068;2023-08-08T11:25:24;4.32;;;1.50;;
4873;SDS011;2451;49.970;9.068;2023-08-08T11:27:51;3.22;;;1.58;;
4873;SDS011;2451;49.970;9.068;2023-08-08T11:30:18;3.72;;;1.42;;
4873;SDS011;2451;49.970;9.068;2023-08-08T11:32:45;2.83;;;1.40;;
4873;SDS011;2451;49.970;9.068;2023-08-08T11:35:12;3.17;;;1.50;;
4873;SDS011;2451;49.970;9.068;2023-08-08T11:37:41;4.68;;;1.58;;
4873;SDS011;2451;49.970;9.068;2023-08-08T11:40:07;4.70;;;1.45;;
4873;SDS011;2451;49.970;9.068;2023-08-08T11:42:33;3.20;;;1.30;;
4873;SDS011;2451;49.970;9.068;2023-08-08T11:44:59;1.80;;;1.25;;
4873;SDS011;2451;49.970;9.068;2023-08-08T11:47:25;4.25;;;1.48;;
4873;SDS011;2451;49.970;9.068;2023-08-08T11:49:51;5.03;;;1.65;;
4873;SDS011;2451;49.970;9.068;2023-08-08T11:52:18;7.22;;;1.55;;
4873;SDS011;2451;49.970;9.068;2023-08-08T11:54:44;4.93;;;1.30;;
4873;SDS011;2451;49.970;9.068;2023-08-08T11:57:15;3.22;;;1.25;;
4873;SDS011;2451;49.970;9.068;2023-08-08T11:59:41;3.80;;;1.30;;
4873;SDS011;2451;49.970;9.068;2023-08-08T12:02:06;2.45;;;1.40;;
4873;SDS011;2451;49.970;9.068;2023-08-08T12:04:32;2.88;;;1.40;;
4873;SDS011;2451;49.970;9.068;2023-08-08T12:07:01;2.95;;;1.40;;
4873;SDS011;2451;49.970;9.068;2023-08-08T12:09:32;3.88;;;1.38;;
4873;SDS011;2451;49.970;9.068;2023-08-08T12:12:01;4.38;;;1.52;;
4873;SDS011;2451;49.970;9.068;2023-08-08T12:14:26;4.70;;;1.50;;
4873;SDS011;2451;49.970;9.068;2023-08-08T12:16:53;5.70;;;1.65;;
4873;SDS011;2451;49.970;9.068;2023-08-08T12:19:22;3.97;;;1.60;;
4873;SDS011;2451;49.970;9.068;2023-08-08T12:21:49;3.45;;;1.45;;
4873;SDS011;2451;49.970;9.068;2023-08-08T12:24:16;2.90;;;1.58;;
4873;SDS011;2451;49.970;9.068;2023-08-08T12:26:42;3.33;;;1.50;;
4873;SDS011;2451;49.970;9.068;2023-08-08T12:29:08;4.53;;;1.45;;
4873;SDS011;2451;49.970;9.068;2023-08-08T12:31:33;4.43;;;1.70;;
4873;SDS011;2451;49.970;9.068;2023-08-08T12:33:59;4.63;;;1.58;;
4873;SDS011;2451;49.970;9.068;2023-08-08T12:36:25;3.30;;;1.35;;
4873;SDS011;2451;49.970;9.068;2023-08-08T12:38:51;3.13;;;1.80;;
4873;SDS011;2451;49.970;9.068;2023-08-08T12:41:17;3.53;;;1.40;;
4873;SDS011;2451;49.970;9.068;2023-08-08T12:43:42;3.78;;;1.80;;
4873;SDS011;2451;49.970;9.068;2023-08-08T12:46:08;3.90;;;1.25;;
4873;SDS011;2451;49.970;9.068;2023-08-08T12:48:33;4.97;;;1.80;;
4873;SDS011;2451;49.970;9.068;2023-08-08T12:50:59;4.57;;;1.70;;
4873;SDS011;2451;49.970;9.068;2023-08-08T12:53:25;4.07;;;1.60;;
4873;SDS011;2451;49.970;9.068;2023-08-08T12:55:51;5.63;;;1.60;;
4873;SDS011;2451;49.970;9.068;2023-08-08T12:58:17;3.15;;;1.35;;
4873;SDS011;2451;49.970;9.068;2023-08-08T13:00:42;4.35;;;1.63;;
4873;SDS011;2451;49.970;9.068;2023-08-08T13:03:08;4.53;;;1.40;;
4873;SDS011;2451;49.970;9.068;2023-08-08T13:05:35;3.83;;;1.60;;
4873;SDS011;2451;49.970;9.068;2023-08-08T13:08:00;2.40;;;1.40;;
4873;SDS011;2451;49.970;9.068;2023-08-08T13:10:26;4.15;;;1.52;;
4873;SDS011;2451;49.970;9.068;2023-08-08T13:12:52;2.70;;;1.33;;
4873;SDS011;2451;49.970;9.068;2023-08-08T13:15:17;3.33;;;1.42;;
4873;SDS011;2451;49.970;9.068;2023-08-08T13:17:43;4.15;;;1.60;;
4873;SDS011;2451;49.970;9.068;2023-08-08T13:20:09;3.47;;;1.63;;
4873;SDS011;2451;49.970;9.068;2023-08-08T13:22:35;3.33;;;1.63;;
4873;SDS011;2451;49.970;9.068;2023-08-08T13:25:00;2.67;;;1.20;;
4873;SDS011;2451;49.970;9.068;2023-08-08T13:27:26;4.00;;;1.40;;
4873;SDS011;2451;49.970;9.068;2023-08-08T13:29:51;6.88;;;1.70;;
4873;SDS011;2451;49.970;9.068;2023-08-08T13:32:17;4.03;;;1.27;;
4873;SDS011;2451;49.970;9.068;2023-08-08T13:34:43;3.78;;;1.52;;
4873;SDS011;2451;49.970;9.068;2023-08-08T13:37:09;3.78;;;1.48;;
4873;SDS011;2451;49.970;9.068;2023-08-08T13:39:34;4.70;;;1.63;;
4873;SDS011;2451;49.970;9.068;2023-08-08T13:42:00;5.45;;;1.52;;
4873;SDS011;2451;49.970;9.068;2023-08-08T13:44:25;3.78;;;1.60;;
4873;SDS011;2451;49.970;9.068;2023-08-08T13:46:51;3.17;;;1.40;;
4873;SDS011;2451;49.970;9.068;2023-08-08T13:49:17;2.97;;;1.50;;
4873;SDS011;2451;49.970;9.068;2023-08-08T13:51:42;4.55;;;1.50;;
4873;SDS011;2451;49.970;9.068;2023-08-08T13:54:08;3.95;;;1.30;;
4873;SDS011;2451;49.970;9.068;2023-08-08T13:56:34;2.67;;;1.50;;
4873;SDS011;2451;49.970;9.068;2023-08-08T13:59:00;3.85;;;1.35;;
4873;SDS011;2451;49.970;9.068;2023-08-08T14:01:26;3.75;;;1.45;;
4873;SDS011;2451;49.970;9.068;2023-08-08T14:03:51;2.47;;;1.40;;
4873;SDS011;2451;49.970;9.068;2023-08-08T14:06:17;4.30;;;1.48;;
4873;SDS011;2451;49.970;9.068;2023-08-08T14:08:43;3.85;;;1.40;;
4873;SDS011;2451;49.970;9.068;2023-08-08T14:11:08;3.20;;;1.60;;
4873;SDS011;2451;49.970;9.068;2023-08-08T14:13:34;2.95;;;1.33;;
4873;SDS011;2451;49.970;9.068;2023-08-08T14:16:00;2.97;;;1.48;;
4873;SDS011;2451;49.970;9.068;2023-08-08T14:18:28;2.83;;;1.20;;
4873;SDS011;2451;49.970;9.068;2023-08-08T14:20:54;4.03;;;1.63;;
4873;SDS011;2451;49.970;9.068;2023-08-08T14:23:22;4.20;;;1.50;;
4873;SDS011;2451;49.970;9.068;2023-08-08T14:25:48;4.95;;;1.42;;
4873;SDS011;2451;49.970;9.068;2023-08-08T14:28:13;4.53;;;1.27;;
4873;SDS011;2451;49.970;9.068;2023-08-08T14:30:39;3.30;;;1.45;;
4873;SDS011;2451;49.970;9.068;2023-08-08T14:33:05;5.78;;;1.40;;
4873;SDS011;2451;49.970;9.068;2023-08-08T14:35:30;2.33;;;1.45;;
4873;SDS011;2451;49.970;9.068;2023-08-08T14:37:56;3.17;;;1.38;;
4873;SDS011;2451;49.970;9.068;2023-08-08T14:40:21;2.75;;;1.30;;
4873;SDS011;2451;49.970;9.068;2023-08-08T14:42:47;3.83;;;1.55;;
4873;SDS011;2451;49.970;9.068;2023-08-08T14:45:13;3.03;;;1.33;;
4873;SDS011;2451;49.970;9.068;2023-08-08T14:47:38;2.70;;;1.27;;
4873;SDS011;2451;49.970;9.068;2023-08-08T14:50:04;3.00;;;1.27;;
4873;SDS011;2451;49.970;9.068;2023-08-08T14:52:31;5.10;;;1.30;;
4873;SDS011;2451;49.970;9.068;2023-08-08T14:54:56;3.92;;;1.40;;
4873;SDS011;2451;49.970;9.068;2023-08-08T14:57:22;5.63;;;1.50;;
4873;SDS011;2451;49.970;9.068;2023-08-08T14:59:47;3.45;;;1.35;;
4873;SDS011;2451;49.970;9.068;2023-08-08T15:02:13;3.15;;;1.55;;
4873;SDS011;2451;49.970;9.068;2023-08-08T15:04:39;3.58;;;1.60;;
4873;SDS011;2451;49.970;9.068;2023-08-08T15:07:07;2.90;;;1.45;;
4873;SDS011;2451;49.970;9.068;2023-08-08T15:09:32;27.87;;;2.20;;
4873;SDS011;2451;49.970;9.068;2023-08-08T15:11:58;5.53;;;1.50;;
4873;SDS011;2451;49.970;9.068;2023-08-08T15:14:27;6.07;;;1.63;;
4873;SDS011;2451;49.970;9.068;2023-08-08T15:16:55;5.68;;;1.30;;